Terminal Aerodrome Forecast
Issued by NWS

Home | Current Version | Previous Version | Graphics & Text | Print | Product List | Glossary On
Versions: 1 2 3 4 5 6 7 8 9 10 11 12 13 14 15 16 17 18 19 20 21 22 23 24 25 26 27 28 29
000
FTUS43 KABR 230500
TAFMBG
TAF
KMBG 230520Z 2306/2406 34022G32KT 1SM -SN BLSN OVC010
      TEMPO 2306/2310 3/4SM -SN BLSN OVC007
     FM231600 32020G30KT 2SM -SN BLSN OVC010
     FM232200 32017KT P6SM OVC015=

USA.gov is the U.S. government's official web portal to all federal, state and local government web resources and services.